createdAt,value
2018-07-26T00:00:36.768Z,98310.92
2018-07-26T00:03:05.798Z,98303.22
2018-07-26T00:05:35.319Z,98299.84
2018-07-26T00:08:04.337Z,98304.94
2018-07-26T00:10:33.403Z,98298.84
2018-07-26T00:13:02.524Z,98294.89
2018-07-26T00:15:31.495Z,98302.80
2018-07-26T00:18:00.471Z,98302.80
2018-07-26T00:20:29.432Z,98299.55
2018-07-26T00:22:58.462Z,98310.02
2018-07-26T00:25:27.432Z,98312.66
2018-07-26T00:27:56.395Z,98311.75
2018-07-26T00:30:25.397Z,98310.52
2018-07-26T00:32:54.460Z,98311.25
2018-07-26T00:35:23.530Z,98305.24
2018-07-26T00:37:52.480Z,98308.70
2018-07-26T00:40:21.523Z,98308.99
2018-07-26T00:42:50.472Z,98303.63
2018-07-26T00:45:19.436Z,98307.30
2018-07-26T00:47:48.423Z,98312.03
2018-07-26T00:50:17.389Z,98308.09
2018-07-26T00:52:46.393Z,98303.63
2018-07-26T00:55:15.371Z,98298.16
2018-07-26T00:57:44.439Z,98296.55
2018-07-26T01:00:13.450Z,98298.48
2018-07-26T01:02:42.412Z,98302.32
2018-07-26T01:05:11.461Z,98300.70
2018-07-26T01:07:40.484Z,98293.02
2018-07-26T01:10:09.772Z,98301.20
2018-07-26T01:12:38.811Z,98292.48
2018-07-26T01:15:08.112Z,98298.08
2018-07-26T01:17:37.102Z,98293.39
2018-07-26T01:20:06.459Z,98295.11
2018-07-26T01:22:35.453Z,98293.63
2018-07-26T01:25:04.468Z,98300.00
2018-07-26T01:27:33.491Z,98296.46
2018-07-26T01:30:02.485Z,98303.25
2018-07-26T01:32:31.529Z,98302.44
2018-07-26T01:35:00.556Z,98301.94
2018-07-26T01:37:29.555Z,98303.13
2018-07-26T01:39:58.616Z,98308.61
2018-07-26T01:42:27.732Z,98307.00
2018-07-26T01:44:56.756Z,98307.78
2018-07-26T01:47:25.776Z,98310.54
2018-07-26T01:49:54.820Z,98306.18
2018-07-26T01:52:23.860Z,98310.63
2018-07-26T01:54:52.895Z,98309.64
2018-07-26T01:57:21.895Z,98312.56
2018-07-26T01:59:50.928Z,98316.60
2018-07-26T02:02:19.950Z,98318.04
2018-07-26T02:04:48.969Z,98325.21
2018-07-26T02:07:18.019Z,98316.61
2018-07-26T02:09:47.015Z,98320.88
2018-07-26T02:12:16.088Z,98323.52
2018-07-26T02:14:45.124Z,98316.11
2018-07-26T02:17:14.123Z,98320.06
2018-07-26T02:19:43.150Z,98318.25
2018-07-26T02:22:12.300Z,98317.30
2018-07-26T02:24:41.295Z,98321.17
2018-07-26T02:27:10.268Z,98327.55
2018-07-26T02:29:39.320Z,98329.27
2018-07-26T02:32:08.380Z,98325.45
2018-07-26T02:34:37.419Z,98319.23
2018-07-26T02:37:06.400Z,98332.32
2018-07-26T02:39:35.486Z,98326.34
2018-07-26T02:42:04.603Z,98328.16
2018-07-26T02:44:33.572Z,98329.39
2018-07-26T02:47:02.556Z,98335.56
2018-07-26T02:49:31.515Z,98333.22
2018-07-26T02:52:00.555Z,98339.59
2018-07-26T02:54:29.529Z,98337.38
2018-07-26T02:56:58.494Z,98335.47
2018-07-26T02:59:27.474Z,98338.28
2018-07-26T03:01:56.437Z,98339.30
2018-07-26T03:04:25.725Z,98334.44
2018-07-26T03:06:55.071Z,98331.59
2018-07-26T03:09:24.364Z,98338.58
2018-07-26T03:11:53.631Z,98346.60
2018-07-26T03:14:23.347Z,98340.22
2018-07-26T03:16:52.656Z,98341.21
2018-07-26T03:19:22.069Z,98334.53
2018-07-26T03:21:51.339Z,98338.78
2018-07-26T03:24:20.543Z,98333.71
2018-07-26T03:26:49.840Z,98346.80
2018-07-26T03:29:19.097Z,98343.75
2018-07-26T03:31:48.402Z,98344.55
2018-07-26T03:34:17.724Z,98344.74
2018-07-26T03:36:47.028Z,98347.17
2018-07-26T03:39:16.032Z,98350.73
2018-07-26T03:41:44.998Z,98350.23
2018-07-26T03:44:14.580Z,98350.21
2018-07-26T03:46:43.851Z,98352.31
2018-07-26T03:49:13.260Z,98351.42
2018-07-26T03:51:42.332Z,98355.16
2018-07-26T03:54:11.297Z,98360.16
2018-07-26T03:56:40.288Z,98357.02
2018-07-26T03:59:09.356Z,98354.17
2018-07-26T04:01:38.769Z,98349.95
2018-07-26T04:04:09.059Z,98353.59
2018-07-26T04:06:38.267Z,98349.84
2018-07-26T04:09:13.339Z,98359.56
2018-07-26T04:11:43.801Z,98350.96
2018-07-26T04:14:13.160Z,98358.16
2018-07-26T04:16:42.527Z,98360.81
2018-07-26T04:19:12.503Z,98360.78
2018-07-26T04:21:42.122Z,98363.13
2018-07-26T04:24:11.421Z,98365.36
2018-07-26T04:26:40.782Z,98371.55
2018-07-26T04:29:10.100Z,98370.14
2018-07-26T04:31:39.136Z,98371.25
2018-07-26T04:34:08.116Z,98373.55
2018-07-26T04:36:37.546Z,98365.20
2018-07-26T04:39:09.176Z,98375.51
2018-07-26T04:41:38.313Z,98381.54
2018-07-26T04:44:07.650Z,98387.52
2018-07-26T04:46:36.966Z,98379.23
2018-07-26T04:49:06.301Z,98383.64
2018-07-26T04:51:35.521Z,98389.92
2018-07-26T04:54:04.528Z,98393.53
2018-07-26T04:56:33.565Z,98395.64
2018-07-26T04:59:02.552Z,98391.51
2018-07-26T05:01:31.532Z,98389.05
2018-07-26T05:04:00.735Z,98393.86
2018-07-26T05:06:29.691Z,98394.11
2018-07-26T05:08:58.664Z,98396.60
2018-07-26T05:11:28.105Z,98398.27
2018-07-26T05:13:57.319Z,98405.86
2018-07-26T05:16:26.491Z,98407.33
2018-07-26T05:18:55.672Z,98412.94
2018-07-26T05:21:24.960Z,98415.36
2018-07-26T05:23:54.276Z,98411.46
2018-07-26T05:26:23.636Z,98411.51
2018-07-26T05:28:52.693Z,98413.41
2018-07-26T05:31:21.966Z,98417.66
2018-07-26T05:33:51.024Z,98418.94
2018-07-26T05:36:20.304Z,98421.44
2018-07-26T05:38:49.483Z,98428.82
2018-07-26T05:41:18.679Z,98427.56
2018-07-26T05:43:47.832Z,98435.65
2018-07-26T05:46:17.155Z,98438.30
2018-07-26T05:48:46.356Z,98438.53
2018-07-26T05:51:15.653Z,98440.26
2018-07-26T05:53:44.700Z,98438.33
2018-07-26T05:56:14.150Z,98436.98
2018-07-26T05:58:43.509Z,98435.28
2018-07-26T06:01:14.039Z,98432.49
2018-07-26T06:03:43.086Z,98432.19
2018-07-26T06:06:12.452Z,98432.33
2018-07-26T06:08:41.641Z,98433.50
2018-07-26T06:11:10.889Z,98433.44
2018-07-26T06:13:40.139Z,98437.98
2018-07-26T06:16:09.409Z,98443.42
2018-07-26T06:18:38.695Z,98445.33
2018-07-26T06:21:08.392Z,98444.18
2018-07-26T06:23:37.795Z,98443.44
2018-07-26T06:26:07.105Z,98438.29
2018-07-26T06:28:36.601Z,98438.60
2018-07-26T06:31:05.873Z,98446.05
2018-07-26T06:33:34.918Z,98442.47
2018-07-26T06:36:03.897Z,98444.07
2018-07-26T06:38:33.044Z,98443.20
2018-07-26T06:41:02.075Z,98444.89
2018-07-26T06:43:31.042Z,98445.83
2018-07-26T06:46:00.952Z,98445.13
2018-07-26T06:48:30.024Z,98448.76
2018-07-26T06:50:59.002Z,98441.09
2018-07-26T06:53:28.008Z,98446.55
2018-07-26T06:55:57.033Z,98445.98
2018-07-26T06:58:26.181Z,98451.75
2018-07-26T07:00:55.317Z,98452.09
2018-07-26T07:03:24.351Z,98447.28
2018-07-26T07:05:53.396Z,98451.82
2018-07-26T07:08:22.471Z,98446.92
2018-07-26T07:10:51.536Z,98450.49
2018-07-26T07:13:20.610Z,98455.17
2018-07-26T07:15:49.685Z,98451.69
2018-07-26T07:18:18.899Z,98449.42
2018-07-26T07:20:47.951Z,98454.19
2018-07-26T07:23:16.935Z,98451.86
2018-07-26T07:25:45.997Z,98455.20
2018-07-26T07:28:15.049Z,98452.83
2018-07-26T07:30:44.007Z,98455.34
2018-07-26T07:33:13.091Z,98457.84
2018-07-26T07:35:42.056Z,98457.32
2018-07-26T07:38:11.101Z,98455.73
2018-07-26T07:40:40.093Z,98459.25
2018-07-26T07:43:09.071Z,98463.04
2018-07-26T07:45:38.172Z,98455.61
2018-07-26T07:48:07.338Z,98456.11
2018-07-26T07:50:36.415Z,98456.78
2018-07-26T07:53:05.542Z,98454.98
2018-07-26T07:55:34.605Z,98450.95
2018-07-26T07:58:03.615Z,98448.53
2018-07-26T08:00:32.633Z,98448.75
2018-07-26T08:03:01.970Z,98442.89
2018-07-26T08:05:31.267Z,98448.79
2018-07-26T08:08:00.375Z,98443.97
2018-07-26T08:10:29.571Z,98444.75
2018-07-26T08:12:58.575Z,98446.89
2018-07-26T08:15:27.539Z,98450.11
2018-07-26T08:17:56.576Z,98445.55
2018-07-26T08:20:25.563Z,98448.77
2018-07-26T08:22:54.598Z,98455.45
2018-07-26T08:25:23.635Z,98447.41
2018-07-26T08:27:52.607Z,98456.13
2018-07-26T08:30:21.697Z,98448.89
2018-07-26T08:32:50.780Z,98448.96
2018-07-26T08:35:19.840Z,98446.14
2018-07-26T08:37:48.847Z,98435.91
2018-07-26T08:40:17.807Z,98445.33
2018-07-26T08:42:46.884Z,98438.37
2018-07-26T08:45:15.872Z,98436.91
2018-07-26T08:47:44.996Z,98438.21
2018-07-26T08:50:14.000Z,98434.95
2018-07-26T08:52:43.015Z,98435.71
2018-07-26T08:55:12.040Z,98436.80
2018-07-26T08:57:41.026Z,98433.80
2018-07-26T09:00:10.421Z,98429.75
2018-07-26T09:02:39.409Z,98425.66
2018-07-26T09:05:08.527Z,98426.48
2018-07-26T09:07:37.523Z,98420.13
2018-07-26T09:10:06.508Z,98417.41
2018-07-26T09:12:35.624Z,98417.31
2018-07-26T09:15:04.770Z,98418.56
2018-07-26T09:17:33.837Z,98411.70
2018-07-26T09:20:02.893Z,98416.86
2018-07-26T09:22:32.006Z,98412.77
2018-07-26T09:25:00.965Z,98416.94
2018-07-26T09:27:29.944Z,98410.99
2018-07-26T09:29:58.980Z,98406.19
2018-07-26T09:32:27.967Z,98413.98
2018-07-26T09:34:57.066Z,98414.45
2018-07-26T09:37:26.126Z,98412.83
2018-07-26T09:39:55.183Z,98410.55
2018-07-26T09:42:24.152Z,98404.02
2018-07-26T09:44:53.263Z,98412.95
2018-07-26T09:47:22.340Z,98407.82
2018-07-26T09:49:51.308Z,98405.94
2018-07-26T09:52:20.296Z,98411.77
2018-07-26T09:54:49.392Z,98403.78
2018-07-26T09:57:18.485Z,98410.28
2018-07-26T09:59:47.839Z,98410.33
2018-07-26T10:02:16.873Z,98413.95
2018-07-26T10:04:45.957Z,98412.31
2018-07-26T10:07:14.936Z,98414.28
2018-07-26T10:09:44.296Z,98414.56
2018-07-26T10:12:13.552Z,98414.16
2018-07-26T10:14:42.748Z,98411.05
2018-07-26T10:17:12.023Z,98407.20
2018-07-26T10:19:41.071Z,98405.41
2018-07-26T10:22:10.136Z,98408.41
2018-07-26T10:24:39.282Z,98409.50
2018-07-26T10:27:08.433Z,98406.06
2018-07-26T10:29:37.406Z,98404.07
2018-07-26T10:32:06.554Z,98397.16
2018-07-26T10:34:35.531Z,98394.25
2018-07-26T10:37:04.541Z,98385.13
2018-07-26T10:39:33.503Z,98388.77
2018-07-26T10:42:02.483Z,98387.50
2018-07-26T10:44:31.602Z,98386.36
2018-07-26T10:47:00.753Z,98379.42
2018-07-26T10:49:29.861Z,98382.11
2018-07-26T10:51:58.848Z,98378.76
2018-07-26T10:54:27.828Z,98375.41
2018-07-26T10:56:57.076Z,98377.44
2018-07-26T10:59:26.046Z,98371.32
2018-07-26T11:01:55.103Z,98373.33
2018-07-26T11:04:24.156Z,98369.49
2018-07-26T11:06:53.221Z,98369.33
2018-07-26T11:09:22.352Z,98365.11
2018-07-26T11:11:51.464Z,98364.59
2018-07-26T11:14:21.069Z,98362.71
2018-07-26T11:16:50.112Z,98363.34
2018-07-26T11:19:19.157Z,98363.79
2018-07-26T11:21:48.200Z,98357.70
2018-07-26T11:24:17.426Z,98353.54
2018-07-26T11:26:46.427Z,98357.64
2018-07-26T11:29:15.391Z,98363.69
2018-07-26T11:31:44.450Z,98358.48
2018-07-26T11:34:13.427Z,98360.58
2018-07-26T11:36:42.468Z,98354.05
2018-07-26T11:39:12.103Z,98350.14
2018-07-26T11:41:41.113Z,98350.83
2018-07-26T11:44:10.121Z,98353.51
2018-07-26T11:46:39.240Z,98354.95
2018-07-26T11:49:08.270Z,98349.50
2018-07-26T11:51:37.296Z,98340.09
2018-07-26T11:54:06.387Z,98347.51
2018-07-26T11:56:35.368Z,98347.83
2018-07-26T11:59:04.424Z,98350.31
2018-07-26T12:01:33.486Z,98348.80
2018-07-26T12:04:02.447Z,98340.94
2018-07-26T12:06:31.515Z,98342.51
2018-07-26T12:09:00.516Z,98344.00
2018-07-26T12:11:29.638Z,98345.30
2018-07-26T12:13:58.676Z,98337.07
2018-07-26T12:16:27.655Z,98337.08
2018-07-26T12:18:56.633Z,98332.55
2018-07-26T12:21:25.591Z,98334.67
2018-07-26T12:23:54.602Z,98329.50
2018-07-26T12:26:23.632Z,98330.73
2018-07-26T12:28:52.687Z,98334.44
2018-07-26T12:31:21.717Z,98328.25
2018-07-26T12:33:50.677Z,98327.95
2018-07-26T12:36:19.660Z,98329.79
2018-07-26T12:38:48.696Z,98325.94
2018-07-26T12:41:17.845Z,98321.41
2018-07-26T12:43:46.828Z,98320.55
2018-07-26T12:46:15.875Z,98324.88
2018-07-26T12:48:44.952Z,98330.75
2018-07-26T12:51:14.012Z,98323.08
2018-07-26T12:53:43.048Z,98320.17
2018-07-26T12:56:12.134Z,98311.55
2018-07-26T12:58:41.120Z,98322.14
2018-07-26T13:01:10.081Z,98317.87
2018-07-26T13:03:39.125Z,98312.73
2018-07-26T13:06:08.234Z,98312.34
2018-07-26T13:08:37.188Z,98306.34
2018-07-26T13:11:06.339Z,98302.88
2018-07-26T13:13:35.412Z,98305.75
2018-07-26T13:16:04.488Z,98308.97
2018-07-26T13:18:33.510Z,98302.48
2018-07-26T13:21:02.726Z,98304.67
2018-07-26T13:23:31.817Z,98302.89
2018-07-26T13:26:00.793Z,98299.22
2018-07-26T13:28:29.804Z,98289.84
2018-07-26T13:30:58.837Z,98290.23
2018-07-26T13:33:27.877Z,98289.70
2018-07-26T13:35:56.862Z,98291.47
2018-07-26T13:38:25.852Z,98287.36
2018-07-26T13:40:54.850Z,98283.70
2018-07-26T13:43:23.968Z,98276.56
2018-07-26T13:45:52.997Z,98288.80
2018-07-26T13:48:21.960Z,98290.42
2018-07-26T13:50:50.939Z,98290.75
2018-07-26T13:53:19.912Z,98291.32
2018-07-26T13:55:48.966Z,98291.55
2018-07-26T13:58:17.990Z,98290.27
2018-07-26T14:00:46.984Z,98291.08
2018-07-26T14:03:16.013Z,98295.97
2018-07-26T14:05:45.008Z,98303.84
2018-07-26T14:08:13.985Z,98301.02
2018-07-26T14:10:43.250Z,98307.86
2018-07-26T14:13:12.256Z,98307.08
2018-07-26T14:15:41.385Z,98302.27
2018-07-26T14:18:10.448Z,98304.69
2018-07-26T14:20:39.494Z,98310.86
2018-07-26T14:23:12.525Z,98317.25
2018-07-26T14:25:41.520Z,98318.59
2018-07-26T14:28:10.547Z,98323.67
2018-07-26T14:30:39.606Z,98318.81
2018-07-26T14:33:09.116Z,98323.12
2018-07-26T14:35:38.228Z,98319.94
2018-07-26T14:38:07.310Z,98325.56
2018-07-26T14:40:36.283Z,98321.26
2018-07-26T14:43:05.360Z,98321.25
2018-07-26T14:45:34.476Z,98326.05
2018-07-26T14:48:03.625Z,98327.92
2018-07-26T14:50:32.685Z,98321.47
2018-07-26T14:53:01.725Z,98322.27
2018-07-26T14:55:30.984Z,98312.62
2018-07-26T14:58:00.289Z,98313.63
2018-07-26T15:00:29.651Z,98316.00
2018-07-26T15:02:58.775Z,98319.97
2018-07-26T15:05:27.755Z,98318.88
2018-07-26T15:07:56.869Z,98320.41
2018-07-26T15:10:25.912Z,98319.24
2018-07-26T15:12:54.892Z,98321.55
2018-07-26T15:15:23.989Z,98318.49
2018-07-26T15:17:53.016Z,98323.44
2018-07-26T15:20:21.994Z,98327.31
2018-07-26T15:22:50.968Z,98325.92
2018-07-26T15:25:24.987Z,98325.06
2018-07-26T15:27:54.968Z,98327.42
2018-07-26T15:30:24.069Z,98329.78
2018-07-26T15:32:54.098Z,98333.52
2018-07-26T15:35:23.120Z,98335.98
2018-07-26T15:37:52.426Z,98339.80
2018-07-26T15:40:21.284Z,98336.66
2018-07-26T15:42:50.288Z,98343.62
2018-07-26T15:45:19.296Z,98344.41
2018-07-26T15:47:48.269Z,98354.27
2018-07-26T15:50:17.275Z,98358.00
2018-07-26T15:52:46.353Z,98362.00
2018-07-26T15:55:15.441Z,98360.61
2018-07-26T15:57:44.520Z,98364.56
2018-07-26T16:00:13.541Z,98371.17
2018-07-26T16:02:42.547Z,98370.80
2018-07-26T16:05:11.572Z,98377.39
2018-07-26T16:07:40.549Z,98371.41
2018-07-26T16:10:10.108Z,98375.45
2018-07-26T16:12:39.504Z,98373.88
2018-07-26T16:15:10.720Z,98381.47
2018-07-26T16:17:39.977Z,98384.58
2018-07-26T16:20:10.212Z,98377.30
2018-07-26T16:22:39.224Z,98381.50
2018-07-26T16:25:09.748Z,98381.12
2018-07-26T16:27:39.021Z,98387.83
2018-07-26T16:30:11.276Z,98381.50
2018-07-26T16:32:40.343Z,98389.41
2018-07-26T16:35:09.651Z,98394.92
2018-07-26T16:37:38.675Z,98401.71
2018-07-26T16:40:07.814Z,98405.44
2018-07-26T16:42:36.746Z,98408.64
2018-07-26T16:45:06.695Z,98409.45
2018-07-26T16:47:35.748Z,98406.30
2018-07-26T16:50:05.501Z,98414.78
2018-07-26T16:52:35.001Z,98418.66
2018-07-26T16:55:04.175Z,98422.08
2018-07-26T16:57:33.168Z,98425.93
2018-07-26T17:00:02.293Z,98425.27
2018-07-26T17:02:31.328Z,98432.25
2018-07-26T17:05:00.429Z,98434.96
2018-07-26T17:07:29.440Z,98439.57
2018-07-26T17:09:58.480Z,98440.43
2018-07-26T17:12:27.616Z,98439.44
2018-07-26T17:14:56.589Z,98441.42
2018-07-26T17:17:25.609Z,98451.84
2018-07-26T17:19:54.612Z,98453.81
2018-07-26T17:22:23.645Z,98454.86
2018-07-26T17:24:52.801Z,98455.38
2018-07-26T17:27:21.846Z,98453.70
2018-07-26T17:29:51.112Z,98455.81
2018-07-26T17:32:20.182Z,98460.43
2018-07-26T17:34:49.172Z,98466.69
2018-07-26T17:37:18.235Z,98458.91
2018-07-26T17:39:47.224Z,98465.91
2018-07-26T17:42:16.476Z,98473.76
2018-07-26T17:44:45.480Z,98474.34
2018-07-26T17:47:14.455Z,98473.64
2018-07-26T17:49:43.507Z,98476.25
2018-07-26T17:52:12.780Z,98478.05
2018-07-26T17:54:42.008Z,98470.70
2018-07-26T17:57:11.193Z,98469.41
2018-07-26T17:59:40.472Z,98471.58
2018-07-26T18:02:09.485Z,98475.98
2018-07-26T18:04:38.577Z,98476.08
2018-07-26T18:07:07.633Z,98473.77
2018-07-26T18:09:36.612Z,98476.14
2018-07-26T18:12:05.689Z,98483.02
2018-07-26T18:14:34.689Z,98490.11
2018-07-26T18:17:03.740Z,98484.75
2018-07-26T18:19:32.736Z,98485.27
2018-07-26T18:22:01.793Z,98492.41
2018-07-26T18:24:30.884Z,98493.30
2018-07-26T18:26:59.865Z,98493.40
2018-07-26T18:29:28.857Z,98497.38
2018-07-26T18:31:57.891Z,98507.34
2018-07-26T18:34:26.988Z,98512.06
2018-07-26T18:36:56.020Z,98510.96
2018-07-26T18:39:25.004Z,98508.08
2018-07-26T18:41:54.039Z,98517.14
2018-07-26T18:44:23.077Z,98526.20
2018-07-26T18:46:52.089Z,98537.86
2018-07-26T18:49:21.088Z,98538.73
2018-07-26T18:51:50.091Z,98538.27
2018-07-26T18:54:19.064Z,98541.16
2018-07-26T18:56:48.088Z,98531.59
2018-07-26T18:59:17.138Z,98533.79
2018-07-26T19:01:46.180Z,98534.97
2018-07-26T19:04:15.162Z,98542.95
2018-07-26T19:06:44.189Z,98549.69
2018-07-26T19:09:13.655Z,98551.98
2018-07-26T19:11:43.143Z,98555.42
2018-07-26T19:14:12.193Z,98552.63
2018-07-26T19:16:41.357Z,98560.06
2018-07-26T19:19:10.396Z,98558.59
2018-07-26T19:21:39.458Z,98556.82
2018-07-26T19:24:08.493Z,98557.92
2018-07-26T19:26:37.488Z,98556.22
2018-07-26T19:29:07.078Z,98552.66
2018-07-26T19:31:36.144Z,98554.32
2018-07-26T19:34:05.209Z,98555.19
2018-07-26T19:36:34.224Z,98553.98
2018-07-26T19:39:03.296Z,98551.64
2018-07-26T19:41:32.351Z,98550.94
2018-07-26T19:44:01.418Z,98555.27
2018-07-26T19:46:30.519Z,98565.47
2018-07-26T19:48:59.567Z,98566.45
2018-07-26T19:51:28.595Z,98556.58
2018-07-26T19:53:57.700Z,98553.22
2018-07-26T19:56:26.672Z,98550.69
2018-07-26T19:58:55.763Z,98553.27
2018-07-26T20:01:25.144Z,98556.91
2018-07-26T20:03:54.690Z,98555.59
2018-07-26T20:06:23.759Z,98556.62
2018-07-26T20:08:52.796Z,98560.37
2018-07-26T20:11:21.769Z,98557.66
2018-07-26T20:13:50.754Z,98559.31
2018-07-26T20:16:19.761Z,98560.78
2018-07-26T20:18:48.785Z,98561.14
2018-07-26T20:21:17.791Z,98563.38
2018-07-26T20:23:46.916Z,98557.66
2018-07-26T20:26:16.044Z,98561.02
2018-07-26T20:28:45.064Z,98564.70
2018-07-26T20:31:14.079Z,98560.13
2018-07-26T20:33:43.068Z,98565.11
2018-07-26T20:36:12.104Z,98559.56
2018-07-26T20:38:41.088Z,98558.24
2018-07-26T20:41:10.145Z,98566.83
2018-07-26T20:43:39.204Z,98559.70
2018-07-26T20:46:08.227Z,98562.35
2018-07-26T20:48:37.283Z,98566.22
2018-07-26T20:51:06.491Z,98562.03
2018-07-26T20:53:35.476Z,98563.67
2018-07-26T20:56:04.512Z,98565.21
2018-07-26T20:58:33.572Z,98568.14
2018-07-26T21:01:02.633Z,98573.72
2018-07-26T21:03:31.697Z,98576.44
2018-07-26T21:06:00.864Z,98572.07
2018-07-26T21:08:30.427Z,98572.78
2018-07-26T21:10:59.719Z,98569.14
2018-07-26T21:13:28.723Z,98569.64
2018-07-26T21:15:57.706Z,98571.25
2018-07-26T21:18:26.901Z,98572.78
2018-07-26T21:20:55.921Z,98566.52
2018-07-26T21:23:25.007Z,98571.20
2018-07-26T21:25:54.153Z,98574.45
2018-07-26T21:28:23.173Z,98571.81
2018-07-26T21:30:52.847Z,98566.63
2018-07-26T21:33:21.999Z,98563.20
2018-07-26T21:35:51.249Z,98558.09
2018-07-26T21:38:20.240Z,98554.27
2018-07-26T21:40:49.206Z,98557.72
2018-07-26T21:43:18.427Z,98558.94
2018-07-26T21:45:47.801Z,98551.03
2018-07-26T21:48:16.800Z,98550.35
2018-07-26T21:50:45.830Z,98550.67
2018-07-26T21:53:14.824Z,98551.80
2018-07-26T21:55:43.808Z,98554.45
2018-07-26T21:58:12.888Z,98557.48
2018-07-26T22:00:56.340Z,98551.09
2018-07-26T22:03:25.824Z,98550.40
2018-07-26T22:05:54.955Z,98553.05
2018-07-26T22:08:23.975Z,98546.94
2018-07-26T22:10:53.027Z,98547.36
2018-07-26T22:13:22.116Z,98541.97
2018-07-26T22:15:52.183Z,98539.45
2018-07-26T22:18:21.764Z,98544.73
2018-07-26T22:20:50.931Z,98546.06
2018-07-26T22:23:19.977Z,98547.52
2018-07-26T22:28:18.894Z,98546.71
2018-07-26T22:30:48.320Z,98550.88
2018-07-26T22:33:17.363Z,98550.40
2018-07-26T22:35:46.354Z,98547.26
2018-07-26T22:38:15.324Z,98558.95
2018-07-26T22:40:44.355Z,98554.57
2018-07-26T22:43:13.408Z,98560.77
2018-07-26T22:45:42.511Z,98565.02
2018-07-26T22:48:11.479Z,98565.02
2018-07-26T22:50:40.461Z,98564.12
2018-07-26T22:53:09.529Z,98564.12
2018-07-26T22:55:38.516Z,98558.46
2018-07-26T22:58:07.569Z,98564.74
2018-07-26T23:00:36.552Z,98565.86
2018-07-26T23:03:05.820Z,98578.66
2018-07-26T23:05:34.932Z,98577.66
2018-07-26T23:08:03.919Z,98580.80
2018-07-26T23:10:32.920Z,98578.98
2018-07-26T23:13:01.913Z,98578.16
2018-07-26T23:15:30.957Z,98580.80
2018-07-26T23:18:00.029Z,98583.64
2018-07-26T23:20:29.196Z,98585.17
2018-07-26T23:22:58.253Z,98586.91
2018-07-26T23:25:27.285Z,98579.19
2018-07-26T23:27:56.276Z,98574.00
2018-07-26T23:30:25.247Z,98574.41
2018-07-26T23:32:54.247Z,98574.00
2018-07-26T23:35:23.244Z,98575.03
2018-07-26T23:37:52.391Z,98578.28
2018-07-26T23:40:21.436Z,98580.51
2018-07-26T23:42:50.487Z,98579.98
2018-07-26T23:45:19.471Z,98576.02
2018-07-26T23:47:48.500Z,98568.41
2018-07-26T23:50:17.525Z,98575.42
2018-07-26T23:52:46.564Z,98571.14
2018-07-26T23:55:15.577Z,98569.11
2018-07-26T23:57:44.576Z,98570.22
